| time (UTC) | temp F | wind direction | speed MPH | gust MPH | rain 1hr in | rain 24hr in | rain mn in | humidity % | barometer mb |
| 20260509083202 | 46 | 292 | 1.0 | 3.0 | 0.00 | 0.00 | 0.00 | 76 | 1024.0 |
| 20260509081536 | 47 | 271 | 2.0 | 4.0 | 0.00 | 0.00 | 0.00 | 74 | 1024.1 |
| 20260509080042 | 49 | 235 | 2.0 | 7.0 | 0.00 | 0.00 | 0.00 | 72 | 1024.2 |
| 20260509074533 | 51 | 117 | 1.0 | 4.0 | 0.00 | 0.00 | 0.00 | 69 | 1024.3 |
| 20260509073039 | 52 | 294 | 2.0 | 5.0 | 0.00 | 0.00 | 0.00 | 69 | 1024.2 |
| 20260509070035 | 52 | 249 | 4.0 | 10.0 | 0.00 | 0.00 | 0.00 | 69 | 1024.0 |
| 20260509064536 | 52 | 246 | 3.0 | 8.0 | 0.00 | 0.00 | 0.00 | 68 | 1024.0 |
| 20260509063052 | 53 | 254 | 1.0 | 6.0 | 0.00 | 0.00 | 0.00 | 65 | 1024.0 |
| 20260509061539 | 55 | 50 | 1.0 | 5.0 | 0.00 | 0.00 | 0.00 | 62 | 1024.0 |
| 20260509054530 | 56 | 240 | 9.0 | 17.0 | 0.00 | 0.00 | 0.00 | 62 | 1023.4 |
| 20260509053049 | 56 | 246 | 10.0 | 19.0 | 0.00 | 0.00 | 0.00 | 62 | 1023.4 |
| 20260509051529 | 56 | 247 | 9.0 | 16.0 | 0.00 | 0.00 | 0.00 | 61 | 1023.6 |
| 20260509044531 | 56 | 256 | 7.0 | 14.0 | 0.00 | 0.00 | 0.00 | 59 | 1023.6 |
| 20260509043056 | 56 | 272 | 6.0 | 14.0 | 0.00 | 0.00 | 0.00 | 58 | 1023.5 |
| 20260509041539 | 57 | 277 | 4.0 | 12.0 | 0.00 | 0.00 | 0.00 | 56 | 1023.5 |
| 20260509040038 | 58 | 269 | 7.0 | 14.0 | 0.00 | 0.00 | 0.00 | 55 | 1023.3 |
| 20260509034541 | 58 | 258 | 8.0 | 16.0 | 0.00 | 0.00 | 0.00 | 54 | 1023.0 |
| 20260509033039 | 59 | 271 | 8.0 | 17.0 | 0.00 | 0.00 | 0.00 | 52 | 1022.7 |
| 20260509031614 | 60 | 285 | 7.0 | 16.0 | 0.00 | 0.00 | 0.00 | 50 | 1022.5 |
| 20260509030111 | 61 | 286 | 7.0 | 15.0 | 0.00 | 0.00 | 0.00 | 48 | 1022.3 |
| 20260509024535 | 62 | 283 | 9.0 | 18.0 | 0.00 | 0.00 | 0.00 | 46 | 1022.1 |
| 20260509023100 | 63 | 288 | 11.0 | 20.0 | 0.00 | 0.00 | 0.00 | 44 | 1021.9 |
| 20260509020036 | 64 | 277 | 11.0 | 24.0 | 0.00 | 0.00 | 0.00 | 41 | 1021.4 |
| 20260509014627 | 65 | 267 | 13.0 | 24.0 | 0.00 | 0.00 | 0.00 | 39 | 1021.3 |
| 20260509013107 | 66 | 266 | 12.0 | 25.0 | 0.00 | 0.00 | 0.00 | 38 | 1021.1 |
| 20260509011530 | 67 | 274 | 11.0 | 22.0 | 0.00 | 0.00 | 0.00 | 38 | 1021.1 |
| 20260509010030 | 68 | 292 | 9.0 | 19.0 | 0.00 | 0.00 | 0.00 | 38 | 1021.1 |
| 20260509004528 | 68 | 320 | 6.0 | 16.0 | 0.00 | 0.00 | 0.00 | 38 | 1021.1 |
| 20260509003110 | 68 | 319 | 6.0 | 14.0 | 0.00 | 0.00 | 0.00 | 37 | 1021.1 |
| 20260509001531 | 68 | 311 | 5.0 | 12.0 | 0.00 | 0.00 | 0.00 | 37 | 1021.0 |
| 20260509000108 | 68 | 320 | 6.0 | 15.0 | 0.00 | 0.00 | 0.00 | 37 | 1021.0 |
| 20260508234530 | 68 | 303 | 7.0 | 17.0 | 0.00 | 0.00 | 0.00 | 38 | 1021.0 |
| 20260508233031 | 68 | 299 | 7.0 | 16.0 | 0.00 | 0.00 | 0.00 | 38 | 1021.0 |
| 20260508230104 | 69 | 301 | 7.0 | 16.0 | 0.00 | 0.00 | 0.00 | 36 | 1021.1 |
| 20260508224646 | 70 | 306 | 8.0 | 19.0 | 0.00 | 0.00 | 0.00 | 36 | 1021.1 |
| 20260508223030 | 70 | 303 | 6.0 | 13.0 | 0.00 | 0.00 | 0.00 | 36 | 1021.1 |
| 20260508221532 | 70 | 304 | 7.0 | 15.0 | 0.00 | 0.00 | 0.00 | 37 | 1021.3 |
| 20260508220030 | 69 | 312 | 8.0 | 21.0 | 0.00 | 0.00 | 0.00 | 38 | 1021.2 |
| 20260508213032 | 68 | 301 | 10.0 | 20.0 | 0.00 | 0.00 | 0.00 | 39 | 1021.1 |
| 20260508210031 | 69 | 311 | 10.0 | 22.0 | 0.00 | 0.00 | 0.00 | 39 | 1020.9 |
| 20260508204530 | 70 | 323 | 8.0 | 16.0 | 0.00 | 0.00 | 0.00 | 39 | 1021.1 |
| 20260508203116 | 70 | 320 | 7.0 | 14.0 | 0.00 | 0.00 | 0.00 | 39 | 1021.1 |
| 20260508194530 | 66 | 329 | 6.0 | 12.0 | 0.00 | 0.00 | 0.00 | 45 | 1021.3 |
| 20260508193032 | 63 | 316 | 4.0 | 13.0 | 0.00 | 0.00 | 0.00 | 48 | 1021.3 |
| 20260508191530 | 62 | 325 | 5.0 | 11.0 | 0.00 | 0.00 | 0.00 | 49 | 1021.3 |
| 20260508190029 | 61 | 321 | 6.0 | 13.0 | 0.00 | 0.00 | 0.00 | 50 | 1021.3 |
| 20260508184530 | 58 | 333 | 6.0 | 16.0 | 0.00 | 0.00 | 0.00 | 52 | 1021.3 |
| 20260508183031 | 58 | 334 | 7.0 | 17.0 | 0.00 | 0.00 | 0.00 | 52 | 1021.1 |
| 20260508181532 | 59 | 326 | 7.0 | 16.0 | 0.00 | 0.00 | 0.00 | 53 | 1021.2 |
| 20260508180031 | 60 | 333 | 7.0 | 13.0 | 0.00 | 0.00 | 0.00 | 53 | 1020.7 |
| 20260508174529 | 61 | 324 | 6.0 | 12.0 | 0.00 | 0.00 | 0.00 | 55 | 1020.5 |
| 20260508173029 | 61 | 325 | 4.0 | 10.0 | 0.00 | 0.00 | 0.00 | 56 | 1020.5 |
| 20260508164645 | 59 | 16 | 2.0 | 9.0 | 0.00 | 0.00 | 0.00 | 60 | 1020.5 |
| 20260508163107 | 58 | 347 | 2.0 | 6.0 | 0.00 | 0.00 | 0.00 | 61 | 1020.7 |
| 20260508161529 | 57 | 346 | 2.0 | 6.0 | 0.00 | 0.00 | 0.00 | 64 | 1020.8 |
| 20260508154531 | 51 | 83 | 1.0 | 4.0 | 0.00 | 0.00 | 0.00 | 73 | 1020.7 |
| 20260508153030 | 48 | 153 | 0.0 | 1.0 | 0.00 | 0.00 | 0.00 | 74 | 1020.5 |
| 20260508151532 | 47 | 157 | 0.0 | 1.0 | 0.00 | 0.00 | 0.00 | 74 | 1020.3 |
| 20260508150030 | 46 | 239 | 0.0 | 1.0 | 0.00 | 0.00 | 0.00 | 74 | 1020.1 |
| 20260508144605 | 45 | 247 | 0.0 | 1.0 | 0.00 | 0.00 | 0.00 | 75 | 1019.9 |
| 20260508143031 | 43 | 198 | 0.0 | 3.0 | 0.00 | 0.00 | 0.00 | 76 | 1019.7 |
| 20260508140105 | 40 | 210 | 1.0 | 4.0 | 0.00 | 0.00 | 0.00 | 78 | 1019.4 |
| 20260508134531 | 39 | 213 | 1.0 | 5.0 | 0.00 | 0.00 | 0.00 | 78 | 1019.2 |
| 20260508133029 | 38 | 212 | 2.0 | 5.0 | 0.00 | 0.00 | 0.00 | 78 | 1019.0 |
| 20260508131531 | 37 | 199 | 2.0 | 6.0 | 0.00 | 0.00 | 0.00 | 77 | 1018.9 |
| 20260508130032 | 38 | 210 | 1.0 | 3.0 | 0.00 | 0.00 | 0.00 | 77 | 1018.7 |
| 20260508123029 | 37 | 226 | 1.0 | 4.0 | 0.00 | 0.00 | 0.00 | 76 | 1018.6 |
| 20260508121606 | 38 | 200 | 0.0 | 3.0 | 0.00 | 0.00 | 0.00 | 75 | 1018.6 |
| 20260508120042 | 38 | 202 | 2.0 | 4.0 | 0.00 | 0.00 | 0.00 | 75 | 1018.7 |
| 20260508120033 | 38 | 239 | 1.0 | 4.0 | 0.00 | 0.00 | 0.00 | 74 | 1018.6 |
| 20260508113030 | 39 | 235 | 2.0 | 4.0 | 0.00 | 0.00 | 0.00 | 74 | 1018.5 |
| 20260508111532 | 38 | 208 | 2.0 | 7.0 | 0.00 | 0.00 | 0.00 | 74 | 1018.5 |
| 20260508110030 | 38 | 224 | 2.0 | 4.0 | 0.00 | 0.00 | 0.00 | 74 | 1018.4 |
| 20260508104602 | 38 | 215 | 2.0 | 4.0 | 0.00 | 0.00 | 0.00 | 73 | 1018.4 |
| 20260508103041 | 38 | 207 | 1.0 | 5.0 | 0.00 | 0.00 | 0.00 | 72 | 1018.4 |
| 20260508101547 | 38 | 202 | 2.0 | 4.0 | 0.00 | 0.00 | 0.00 | 71 | 1018.5 |
| 20260508100031 | 39 | 207 | 2.0 | 4.0 | 0.00 | 0.00 | 0.00 | 70 | 1018.4 |
| 20260508094529 | 39 | 235 | 1.0 | 3.0 | 0.00 | 0.00 | 0.00 | 69 | 1018.4 |
| 20260508093108 | 40 | 218 | 1.0 | 3.0 | 0.00 | 0.00 | 0.00 | 68 | 1018.4 |
| 20260508091530 | 40 | 201 | 2.0 | 7.0 | 0.00 | 0.00 | 0.00 | 68 | 1018.4 |
| 20260508084532 | 40 | 224 | 2.0 | 5.0 | 0.00 | 0.00 | 0.00 | 68 | 1018.2 |